Time;durP1;ratioP1;P1;durP2;ratioP2;P2;SDS_P1;SDS_P2;PMS_P1;PMS_P2;Temp;Humidity;BMP_temperature;BMP_pressure;BME280_temperature;BME280_humidity;BME280_pressure;Samples;Min_cycle;Max_cycle;Signal;HPM_P1;HPM_P2
2023/12/01 00:01:00;;;;;;;8.10;4.20;;;18.80;49.90;;;;;;5125251;28;20027;-49
2023/12/01 00:03:26;;;;;;;17.10;4.88;;;18.80;49.80;;;;;;5111817;28;20047;-52
2023/12/01 00:05:52;;;;;;;8.98;4.55;;;18.80;49.90;;;;;;5093712;28;20035;-50
2023/12/01 00:08:18;;;;;;;11.25;5.30;;;18.80;50.00;;;;;;5111916;28;20023;-48
2023/12/01 00:10:44;;;;;;;9.68;4.53;;;18.80;49.90;;;;;;5111313;28;20024;-49
2023/12/01 00:13:09;;;;;;;9.15;4.38;;;18.90;49.80;;;;;;5112277;28;20038;-49
2023/12/01 00:15:35;;;;;;;10.55;5.18;;;18.80;49.80;;;;;;5111565;28;20028;-51
2023/12/01 00:18:01;;;;;;;9.95;4.90;;;18.80;49.50;;;;;;5111703;28;20027;-50
2023/12/01 00:20:27;;;;;;;10.88;5.10;;;18.80;49.60;;;;;;5111465;28;20067;-55
2023/12/01 00:22:52;;;;;;;8.38;4.93;;;18.80;49.40;;;;;;5112126;28;20039;-50
2023/12/01 00:25:18;;;;;;;9.95;4.60;;;18.80;49.30;;;;;;5111349;28;20027;-49
2023/12/01 00:27:45;;;;;;;10.82;4.85;;;18.80;49.40;;;;;;5110990;28;20410;-49
2023/12/01 00:30:11;;;;;;;9.88;4.72;;;18.80;49.20;;;;;;5092504;28;20035;-50
2023/12/01 00:32:37;;;;;;;18.90;5.60;;;18.80;49.50;;;;;;5111385;28;20565;-50
2023/12/01 00:35:03;;;;;;;12.15;4.60;;;18.80;49.20;;;;;;5111205;28;20101;-50
2023/12/01 00:37:30;;;;;;;9.32;4.82;;;18.80;49.20;;;;;;5110749;28;20551;-51
2023/12/01 00:39:56;;;;;;;7.85;4.55;;;18.80;49.10;;;;;;5093007;28;20100;-50
2023/12/01 00:42:22;;;;;;;12.63;4.88;;;18.80;49.10;;;;;;5111262;28;20338;-52
2023/12/01 00:44:48;;;;;;;11.52;4.82;;;18.80;49.20;;;;;;5092849;28;20063;-52
2023/12/01 00:47:14;;;;;;;9.38;4.88;;;18.80;49.30;;;;;;5110928;28;20027;-55
2023/12/01 00:49:39;;;;;;;7.90;4.55;;;18.80;49.10;;;;;;5092671;28;20053;-50
2023/12/01 00:52:05;;;;;;;8.18;4.63;;;18.80;49.60;;;;;;5093048;28;20027;-53
2023/12/01 00:54:32;;;;;;;9.95;4.60;;;18.80;49.00;;;;;;5110783;28;20059;-51
2023/12/01 00:56:58;;;;;;;9.70;4.47;;;18.80;49.10;;;;;;5110991;28;20030;-52
2023/12/01 00:59:24;;;;;;;8.43;4.85;;;18.80;48.80;;;;;;5110372;28;20487;-56
2023/12/01 01:01:50;;;;;;;8.35;4.38;;;18.80;48.70;;;;;;5092834;28;20065;-51
2023/12/01 01:04:16;;;;;;;8.38;4.97;;;18.70;48.80;;;;;;5110830;28;20035;-51
2023/12/01 01:06:41;;;;;;;7.53;4.55;;;18.80;48.80;;;;;;5110727;28;20028;-55
2023/12/01 01:09:08;;;;;;;10.18;5.22;;;18.80;48.70;;;;;;5110908;28;20024;-53
2023/12/01 01:11:34;;;;;;;8.45;4.80;;;18.80;48.80;;;;;;5110367;28;20077;-51
2023/12/01 01:14:00;;;;;;;9.27;4.22;;;18.80;48.80;;;;;;5091335;28;20478;-52
2023/12/01 01:16:26;;;;;;;8.82;4.38;;;18.80;48.70;;;;;;5110386;28;20115;-54
2023/12/01 01:18:52;;;;;;;7.63;4.50;;;18.70;48.50;;;;;;5110569;28;20494;-58
2023/12/01 01:21:18;;;;;;;7.75;4.53;;;18.70;48.50;;;;;;5092131;28;20028;-54
2023/12/01 01:23:43;;;;;;;10.07;4.78;;;18.80;48.60;;;;;;5092067;28;20037;-56
2023/12/01 01:26:09;;;;;;;10.02;5.00;;;18.80;48.80;;;;;;5092024;28;20036;-52
2023/12/01 01:28:35;;;;;;;8.40;4.80;;;18.80;48.70;;;;;;5110333;28;20035;-52
2023/12/01 01:31:01;;;;;;;7.38;4.60;;;18.70;48.50;;;;;;5110129;28;20028;-52
2023/12/01 01:33:27;;;;;;;6.82;4.30;;;18.70;48.50;;;;;;5109689;28;20585;-49
2023/12/01 01:35:53;;;;;;;7.88;4.57;;;18.80;48.50;;;;;;5110097;28;20114;-49
2023/12/01 01:38:19;;;;;;;10.75;4.38;;;18.70;48.60;;;;;;5091873;28;20078;-52
2023/12/01 01:40:45;;;;;;;10.27;4.63;;;18.70;48.40;;;;;;5091429;28;20053;-49
2023/12/01 01:43:22;;;;;;;7.13;4.35;;;18.70;48.40;;;;;;5109888;28;20040;-51
2023/12/01 01:46:01;;;;;;;6.18;4.47;;;18.70;48.20;;;;;;5107461;28;20098;-50
2023/12/01 01:48:29;;;;;;;6.78;4.45;;;18.70;48.30;;;;;;5109545;28;20076;-50
2023/12/01 01:50:54;;;;;;;7.22;4.43;;;18.70;48.20;;;;;;5109350;28;20111;-49
2023/12/01 01:53:20;;;;;;;9.02;5.00;;;18.70;48.20;;;;;;5091826;28;20464;-51
2023/12/01 01:55:46;;;;;;;7.35;4.38;;;18.70;48.00;;;;;;5109879;28;20092;-55
2023/12/01 01:58:12;;;;;;;8.32;4.55;;;18.70;48.10;;;;;;5109415;28;20487;-53
2023/12/01 02:00:39;;;;;;;11.48;4.50;;;18.70;48.10;;;;;;5090891;28;20035;-55
2023/12/01 02:03:04;;;;;;;6.38;3.92;;;18.70;48.10;;;;;;5110260;28;20030;-53
2023/12/01 02:05:33;;;;;;;7.18;4.25;;;18.70;48.10;;;;;;5091538;28;20024;-53
2023/12/01 02:08:22;;;;;;;5.70;3.63;;;18.70;48.00;;;;;;5090895;28;20023;-51
2023/12/01 02:10:48;;;;;;;6.03;4.15;;;18.80;48.10;;;;;;5109112;28;20069;-53
2023/12/01 02:13:14;;;;;;;8.55;4.57;;;18.80;48.20;;;;;;5090812;28;20027;-55
2023/12/01 02:15:42;;;;;;;6.90;3.97;;;18.70;47.80;;;;;;5109891;28;20123;-56
2023/12/01 02:18:30;;;;;;;5.80;3.92;;;18.80;48.00;;;;;;5109868;28;20024;-50
2023/12/01 02:20:57;;;;;;;8.10;4.05;;;18.70;47.90;;;;;;5106218;28;20027;-49
2023/12/01 02:23:23;;;;;;;6.82;3.90;;;18.80;48.00;;;;;;5091201;28;20398;-56
2023/12/01 02:25:49;;;;;;;10.70;4.20;;;18.70;47.90;;;;;;5109166;28;20051;-55
2023/12/01 02:28:16;;;;;;;6.18;3.85;;;18.70;48.20;;;;;;5109009;28;20080;-53
2023/12/01 02:30:47;;;;;;;7.13;4.13;;;18.70;47.90;;;;;;5109051;28;20062;-55
2023/12/01 02:33:16;;;;;;;7.80;3.95;;;18.80;48.00;;;;;;5109318;28;20052;-51
2023/12/01 02:35:50;;;;;;;6.47;4.15;;;18.70;47.90;;;;;;5090510;28;20035;-51
2023/12/01 02:38:17;;;;;;;7.50;4.30;;;18.70;47.70;;;;;;5109152;28;20683;-54
2023/12/01 02:40:43;;;;;;;5.70;3.65;;;18.70;47.90;;;;;;5090683;28;20032;-50
2023/12/01 02:43:11;;;;;;;7.72;3.97;;;18.70;47.70;;;;;;5109354;28;20039;-54
2023/12/01 02:45:37;;;;;;;7.07;4.18;;;18.70;47.80;;;;;;5109214;28;20038;-53
2023/12/01 02:48:04;;;;;;;7.05;3.90;;;18.70;47.70;;;;;;5109127;28;20032;-51
2023/12/01 02:50:31;;;;;;;7.07;4.20;;;18.70;47.70;;;;;;5108480;28;20490;-53
2023/12/01 02:52:57;;;;;;;10.27;4.05;;;18.70;47.80;;;;;;5109128;28;20031;-52
2023/12/01 02:55:23;;;;;;;6.97;3.70;;;18.70;47.90;;;;;;5108867;28;20031;-56
2023/12/01 02:57:49;;;;;;;5.55;4.00;;;18.70;47.90;;;;;;5090663;28;20035;-50
2023/12/01 03:00:15;;;;;;;7.30;3.88;;;18.70;47.60;;;;;;5108687;28;20208;-52
2023/12/01 03:02:45;;;;;;;7.75;3.75;;;18.70;47.80;;;;;;5109122;28;20085;-50
2023/12/01 03:05:11;;;;;;;6.85;3.90;;;18.70;47.60;;;;;;5109042;28;20077;-55
2023/12/01 03:07:38;;;;;;;6.05;3.55;;;18.70;47.70;;;;;;5108809;28;20043;-54
2023/12/01 03:10:07;;;;;;;6.22;3.85;;;18.70;47.90;;;;;;5108712;28;20092;-52
2023/12/01 03:12:33;;;;;;;6.97;4.03;;;18.70;47.60;;;;;;5090269;28;20106;-52
2023/12/01 03:14:59;;;;;;;5.30;3.72;;;18.70;47.60;;;;;;5108821;28;20494;-50
2023/12/01 03:17:25;;;;;;;6.55;3.92;;;18.70;47.80;;;;;;5108960;28;20034;-50
2023/12/01 03:19:52;;;;;;;5.85;3.58;;;18.70;47.50;;;;;;5108783;28;20089;-52
2023/12/01 03:22:19;;;;;;;6.13;3.42;;;18.70;47.40;;;;;;5108728;28;20027;-55
2023/12/01 03:24:47;;;;;;;6.40;3.85;;;18.70;47.50;;;;;;5090412;28;20034;-51
2023/12/01 03:27:16;;;;;;;5.03;3.90;;;18.70;47.60;;;;;;5108638;28;20020;-52
2023/12/01 03:29:42;;;;;;;7.63;3.92;;;18.70;47.60;;;;;;5090352;28;20106;-50
2023/12/01 03:32:08;;;;;;;5.75;3.70;;;18.60;47.00;;;;;;5107922;28;20189;-55
2023/12/01 03:34:34;;;;;;;6.38;3.90;;;18.70;47.50;;;;;;5109094;28;20031;-54
2023/12/01 03:37:01;;;;;;;6.80;4.05;;;18.60;47.40;;;;;;5109335;28;20557;-51
2023/12/01 03:39:27;;;;;;;7.18;3.75;;;18.70;47.30;;;;;;5112513;28;20090;-53
2023/12/01 03:41:52;;;;;;;5.45;3.55;;;18.60;47.20;;;;;;5111976;28;20125;-57
2023/12/01 03:44:19;;;;;;;7.57;3.88;;;18.60;47.30;;;;;;5112161;28;20023;-53
2023/12/01 03:46:44;;;;;;;6.85;3.70;;;18.60;47.30;;;;;;5094114;28;20039;-54
2023/12/01 03:49:10;;;;;;;6.22;3.70;;;18.70;47.20;;;;;;5112358;28;20260;-51
2023/12/01 03:51:36;;;;;;;7.22;3.85;;;18.60;47.10;;;;;;5111480;28;20023;-53
2023/12/01 03:54:02;;;;;;;7.07;4.03;;;18.60;47.40;;;;;;5094221;28;20028;-54
2023/12/01 03:56:29;;;;;;;6.93;4.13;;;18.60;47.30;;;;;;5111580;28;20488;-52
2023/12/01 03:58:55;;;;;;;7.68;4.00;;;18.60;47.10;;;;;;5093771;28;20019;-51
2023/12/01 04:01:22;;;;;;;5.28;3.53;;;18.60;47.10;;;;;;5093594;28;20034;-50
2023/12/01 04:03:48;;;;;;;7.47;3.58;;;18.60;47.10;;;;;;5094332;28;20062;-48
2023/12/01 04:06:14;;;;;;;10.63;3.95;;;18.60;47.90;;;;;;5111173;28;20047;-54
2023/12/01 04:08:39;;;;;;;6.28;3.80;;;18.70;47.20;;;;;;5093971;28;20044;-55
2023/12/01 04:11:06;;;;;;;6.03;3.50;;;18.60;47.30;;;;;;5093165;28;20044;-51
2023/12/01 04:13:33;;;;;;;5.97;3.42;;;18.60;47.20;;;;;;5094036;28;20027;-49
2023/12/01 04:15:59;;;;;;;6.50;3.78;;;18.60;47.10;;;;;;5093242;28;20059;-51
2023/12/01 04:18:29;;;;;;;5.40;3.38;;;18.60;46.90;;;;;;5111854;28;20074;-50
2023/12/01 04:20:57;;;;;;;5.95;3.67;;;18.70;47.00;;;;;;5111162;28;20046;-55
2023/12/01 04:23:23;;;;;;;6.25;3.60;;;18.60;46.90;;;;;;5093932;28;20036;-49
2023/12/01 04:25:49;;;;;;;6.75;3.83;;;18.60;46.90;;;;;;5092904;28;20027;-53
2023/12/01 04:28:15;;;;;;;5.10;3.38;;;18.60;46.90;;;;;;5111669;28;20382;-50
2023/12/01 04:30:45;;;;;;;6.35;3.33;;;18.60;47.00;;;;;;5111027;28;20162;-49
2023/12/01 04:33:13;;;;;;;5.20;3.30;;;18.70;47.10;;;;;;5111553;28;20486;-52
2023/12/01 04:35:39;;;;;;;4.97;3.53;;;18.60;46.70;;;;;;5111374;28;20020;-49
2023/12/01 04:38:05;;;;;;;5.95;3.78;;;18.70;47.10;;;;;;5093001;28;20031;-50
2023/12/01 04:40:32;;;;;;;5.72;3.75;;;18.60;46.90;;;;;;5111017;28;20489;-51
2023/12/01 04:42:58;;;;;;;7.05;4.07;;;18.70;47.10;;;;;;5111355;28;20051;-49
2023/12/01 04:45:30;;;;;;;5.68;3.58;;;18.70;46.80;;;;;;5110936;28;20559;-57
2023/12/01 04:47:56;;;;;;;5.50;3.53;;;18.70;46.90;;;;;;5111156;28;20027;-53
2023/12/01 04:50:26;;;;;;;5.55;3.30;;;18.70;47.10;;;;;;5110828;28;20035;-50
2023/12/01 04:52:54;;;;;;;8.98;3.65;;;18.70;46.90;;;;;;5111068;28;20420;-51
2023/12/01 04:55:22;;;;;;;4.50;3.13;;;18.70;46.90;;;;;;5111475;28;20046;-49
2023/12/01 04:57:48;;;;;;;6.97;3.38;;;18.70;47.10;;;;;;5111126;28;20372;-49
2023/12/01 05:00:19;;;;;;;6.47;3.78;;;18.70;47.10;;;;;;5110734;28;20026;-53
2023/12/01 05:02:56;;;;;;;4.63;3.28;;;18.70;47.00;;;;;;5092190;28;20462;-53
2023/12/01 05:05:24;;;;;;;5.40;3.50;;;18.70;47.00;;;;;;5110677;28;20081;-53
2023/12/01 05:07:52;;;;;;;4.53;3.22;;;18.70;46.90;;;;;;5111161;28;20035;-52
2023/12/01 05:10:20;;;;;;;5.35;3.47;;;18.70;46.90;;;;;;5110380;28;20032;-50
2023/12/01 05:12:50;;;;;;;5.55;3.63;;;18.70;47.80;;;;;;5110178;28;20035;-54
2023/12/01 05:15:18;;;;;;;5.50;3.80;;;18.70;46.60;;;;;;5110700;28;20019;-51
2023/12/01 05:17:55;;;;;;;4.50;3.38;;;18.70;46.80;;;;;;5110382;28;20440;-56
2023/12/01 05:20:23;;;;;;;7.93;3.78;;;18.70;46.80;;;;;;5110849;28;20658;-56
2023/12/01 05:22:51;;;;;;;6.57;3.67;;;18.70;46.80;;;;;;5109370;28;20019;-53
2023/12/01 05:25:18;;;;;;;5.90;3.70;;;18.70;46.80;;;;;;5107812;28;20398;-51
2023/12/01 05:27:49;;;;;;;5.80;3.35;;;18.70;47.00;;;;;;5110775;28;20024;-48
2023/12/01 05:30:17;;;;;;;6.05;4.03;;;18.70;47.20;;;;;;5092579;28;20367;-51
2023/12/01 05:32:44;;;;;;;5.03;3.30;;;18.70;47.20;;;;;;5110343;28;20393;-48
2023/12/01 05:35:12;;;;;;;6.18;3.45;;;18.70;47.30;;;;;;5110669;28;20030;-49
2023/12/01 05:37:39;;;;;;;5.35;3.13;;;18.70;46.70;;;;;;5110820;28;20449;-50
2023/12/01 05:40:14;;;;;;;5.10;3.33;;;18.70;46.60;;;;;;5110657;28;20024;-53
2023/12/01 05:42:44;;;;;;;6.25;4.05;;;18.70;47.50;;;;;;5110260;28;20035;-48
2023/12/01 05:45:11;;;;;;;5.00;3.47;;;18.70;46.70;;;;;;5110775;28;20024;-53
2023/12/01 05:47:48;;;;;;;5.28;3.42;;;18.70;46.60;;;;;;5110274;28;20055;-52
2023/12/01 05:50:24;;;;;;;6.70;3.78;;;18.70;46.60;;;;;;5110272;28;20383;-50
2023/12/01 05:52:53;;;;;;;5.85;3.30;;;18.70;46.50;;;;;;5109871;28;20024;-49
2023/12/01 05:55:23;;;;;;;6.60;3.85;;;18.70;46.80;;;;;;5109904;23;20038;-51
2023/12/01 05:58:06;;;;;;;4.90;3.45;;;18.70;46.40;;;;;;5006916;28;20023;-50
2023/12/01 06:00:32;;;;;;;6.60;3.80;;;18.60;46.30;;;;;;5003141;28;20037;-48
2023/12/01 06:03:02;;;;;;;5.28;3.30;;;18.60;46.70;;;;;;5007298;28;20042;-51
2023/12/01 06:05:28;;;;;;;5.35;3.70;;;18.70;46.30;;;;;;5001397;28;20049;-46
2023/12/01 06:07:58;;;;;;;6.50;3.70;;;18.70;46.40;;;;;;4987578;28;20045;-50
2023/12/01 06:10:29;;;;;;;6.95;3.78;;;18.60;46.20;;;;;;4987771;28;20983;-51
2023/12/01 06:12:55;;;;;;;7.20;3.92;;;18.70;46.50;;;;;;4987728;28;20387;-53
2023/12/01 06:15:21;;;;;;;6.57;3.60;;;18.70;46.60;;;;;;4987579;28;20109;-49
2023/12/01 06:17:49;;;;;;;5.28;3.50;;;18.70;46.50;;;;;;4987624;28;20087;-53
2023/12/01 06:20:17;;;;;;;6.45;4.00;;;18.60;46.40;;;;;;4987141;28;20635;-52
2023/12/01 06:23:05;;;;;;;6.53;3.90;;;18.70;46.70;;;;;;4987623;28;20038;-50
2023/12/01 06:25:33;;;;;;;7.40;3.60;;;18.60;46.10;;;;;;4987633;28;20033;-52
2023/12/01 06:28:01;;;;;;;5.60;3.70;;;18.60;46.30;;;;;;4987032;28;20037;-52
2023/12/01 06:30:33;;;;;;;7.35;4.47;;;18.60;46.10;;;;;;4983371;28;20034;-50
2023/12/01 06:33:03;;;;;;;6.32;3.90;;;18.70;46.20;;;;;;4987214;28;20108;-49
2023/12/01 06:35:29;;;;;;;5.05;3.78;;;18.70;46.30;;;;;;4987520;28;20140;-53
2023/12/01 06:37:55;;;;;;;6.15;3.90;;;18.70;46.30;;;;;;4983460;28;20022;-52
2023/12/01 06:40:21;;;;;;;7.55;3.53;;;18.60;46.60;;;;;;4987153;28;20034;-53
2023/12/01 06:42:52;;;;;;;7.57;4.47;;;18.60;46.70;;;;;;4986817;28;20213;-50
2023/12/01 06:45:28;;;;;;;8.73;3.90;;;18.70;46.30;;;;;;4986708;28;20023;-53
2023/12/01 06:47:58;;;;;;;7.93;4.25;;;18.70;46.20;;;;;;4969945;28;20556;-51
2023/12/01 06:50:24;;;;;;;;;;;18.60;45.80;;;;;;4969929;28;20034;-50
2023/12/01 06:52:52;;;;;;;7.18;4.10;;;18.60;46.20;;;;;;4986207;28;20424;-54
2023/12/01 06:55:18;;;;;;;7.43;4.50;;;18.60;46.10;;;;;;4986729;28;20022;-52
2023/12/01 06:57:48;;;;;;;7.18;4.00;;;18.60;45.90;;;;;;4986893;28;20501;-49
2023/12/01 07:00:36;;;;;;;8.68;4.07;;;18.60;46.20;;;;;;4986913;28;20034;-50
2023/12/01 07:03:04;;;;;;;6.63;4.28;;;18.70;46.40;;;;;;4985819;28;20038;-49
2023/12/01 07:05:31;;;;;;;8.05;4.38;;;18.70;46.30;;;;;;4986381;28;20556;-51
2023/12/01 07:07:58;;;;;;;6.80;4.30;;;18.60;46.30;;;;;;4986638;28;20033;-54
2023/12/01 07:10:25;;;;;;;6.25;4.20;;;18.70;46.50;;;;;;4986518;28;20045;-53
2023/12/01 07:12:55;;;;;;;6.47;4.15;;;18.70;46.40;;;;;;4988475;28;20030;-49
2023/12/01 07:15:22;;;;;;;7.40;4.25;;;18.70;46.40;;;;;;4989839;28;20034;-53
2023/12/01 07:17:50;;;;;;;7.30;4.50;;;18.70;46.40;;;;;;4990359;28;20038;-53
2023/12/01 07:20:18;;;;;;;8.70;4.68;;;18.70;46.50;;;;;;4989817;28;20034;-52
2023/12/01 07:22:45;;;;;;;10.10;5.07;;;18.70;46.20;;;;;;4989849;28;20061;-55
2023/12/01 07:25:25;;;;;;;7.38;4.88;;;18.70;46.40;;;;;;4988761;28;20026;-54
2023/12/01 07:27:56;;;;;;;7.28;4.53;;;18.70;46.40;;;;;;4991108;28;20473;-50
2023/12/01 07:30:23;;;;;;;8.45;4.22;;;18.70;46.30;;;;;;4992264;28;20026;-49
2023/12/01 07:32:49;;;;;;;12.52;4.00;;;18.70;46.40;;;;;;4992140;28;20038;-54
2023/12/01 07:35:16;;;;;;;6.70;3.72;;;18.70;48.10;;;;;;4992433;28;20034;-51
2023/12/01 07:37:43;;;;;;;24.05;7.55;;;18.70;49.30;;;;;;4974883;28;20418;-55
2023/12/01 07:40:10;;;;;;;22.13;9.18;;;18.60;42.40;;;;;;4992321;28;20029;-55
2023/12/01 07:42:37;;;;;;;31.80;8.68;;;18.10;36.30;;;;;;4991482;28;20030;-54
2023/12/01 07:45:03;;;;;;;32.75;8.18;;;17.90;36.70;;;;;;4991604;28;20026;-50
2023/12/01 07:47:29;;;;;;;24.08;7.57;;;18.00;40.90;;;;;;4991834;28;20076;-52
2023/12/01 07:49:54;;;;;;;19.77;7.05;;;18.30;44.10;;;;;;4985994;28;20405;-54
2023/12/01 07:52:20;;;;;;;14.98;6.03;;;18.50;46.00;;;;;;4988029;28;20447;-53
2023/12/01 07:54:46;;;;;;;17.95;6.45;;;18.80;45.70;;;;;;4988273;28;20571;-55
2023/12/01 07:57:12;;;;;;;15.65;6.53;;;18.90;48.70;;;;;;4971771;28;20073;-49
2023/12/01 07:59:38;;;;;;;21.35;6.47;;;19.00;48.70;;;;;;4988305;28;20050;-52
2023/12/01 08:02:04;;;;;;;15.25;7.05;;;19.00;50.10;;;;;;4988332;28;20069;-49
2023/12/01 08:04:30;;;;;;;17.55;6.63;;;19.00;50.70;;;;;;4988513;28;20022;-52
2023/12/01 08:06:56;;;;;;;14.65;6.03;;;19.00;51.10;;;;;;4988854;28;20037;-50
2023/12/01 08:09:25;;;;;;;13.30;5.60;;;19.10;50.10;;;;;;4989673;28;20409;-53
2023/12/01 08:11:51;;;;;;;11.90;5.30;;;19.10;49.20;;;;;;4988714;28;20035;-49
2023/12/01 08:14:17;;;;;;;11.95;5.18;;;19.10;48.60;;;;;;4988493;28;20365;-46
2023/12/01 08:16:42;;;;;;;11.35;5.30;;;19.10;47.40;;;;;;4996056;28;20075;-51
2023/12/01 08:19:11;;;;;;;13.77;5.47;;;19.10;47.50;;;;;;4988406;28;20026;-54
2023/12/01 08:21:37;;;;;;;16.67;5.95;;;19.10;47.40;;;;;;4990128;28;20675;-50
2023/12/01 08:24:04;;;;;;;19.30;6.10;;;19.10;47.70;;;;;;4999983;28;20038;-50
2023/12/01 08:26:31;;;;;;;13.35;5.30;;;19.10;47.80;;;;;;4988333;28;20034;-50
2023/12/01 08:28:57;;;;;;;18.38;5.25;;;19.00;47.40;;;;;;4988744;28;20061;-54
2023/12/01 08:31:24;;;;;;;11.77;5.22;;;19.00;47.40;;;;;;4987573;28;20030;-49
2023/12/01 08:33:50;;;;;;;11.15;5.43;;;19.00;47.40;;;;;;4991337;28;20021;-54
2023/12/01 08:36:18;;;;;;;14.45;6.38;;;19.00;47.50;;;;;;4984541;28;20053;-56
2023/12/01 08:38:44;;;;;;;13.93;5.97;;;19.00;47.10;;;;;;4987837;28;20528;-56
2023/12/01 08:41:10;;;;;;;12.05;5.60;;;19.00;47.40;;;;;;4990873;28;20033;-51
2023/12/01 08:43:36;;;;;;;11.13;5.68;;;19.00;47.60;;;;;;4987537;28;20049;-53
2023/12/01 08:46:02;;;;;;;17.40;5.32;;;19.00;47.30;;;;;;4987906;28;20121;-51
2023/12/01 08:48:28;;;;;;;14.05;5.72;;;19.00;47.20;;;;;;4988520;28;20076;-53
2023/12/01 08:50:54;;;;;;;10.88;5.28;;;19.00;47.80;;;;;;4988104;28;20026;-53
2023/12/01 08:53:22;;;;;;;9.38;5.13;;;19.00;48.40;;;;;;4989012;28;20525;-49
2023/12/01 08:55:48;;;;;;;10.98;5.45;;;19.10;47.90;;;;;;4988526;28;20838;-48
2023/12/01 08:58:15;;;;;;;13.63;5.65;;;19.10;47.80;;;;;;4988653;28;20022;-49
2023/12/01 09:00:41;;;;;;;10.70;5.43;;;19.00;47.40;;;;;;4971110;28;20053;-47
2023/12/01 09:03:07;;;;;;;18.85;6.28;;;19.00;47.50;;;;;;4988525;28;20121;-48
2023/12/01 09:05:33;;;;;;;19.52;5.82;;;19.10;48.30;;;;;;4986030;28;20092;-48
2023/12/01 09:08:01;;;;;;;19.30;5.53;;;19.10;47.80;;;;;;4988289;28;20030;-50
2023/12/01 09:10:28;;;;;;;13.43;5.47;;;19.10;48.00;;;;;;4988234;28;20485;-47
2023/12/01 09:12:54;;;;;;;13.25;5.70;;;19.10;47.40;;;;;;4988570;28;20377;-44
2023/12/01 09:15:19;;;;;;;10.55;5.50;;;19.10;47.10;;;;;;4988373;28;20041;-47
2023/12/01 09:17:45;;;;;;;14.50;5.80;;;19.10;46.70;;;;;;4988492;28;20031;-46
2023/12/01 09:20:11;;;;;;;10.98;5.32;;;19.00;46.60;;;;;;4988628;28;20035;-50
2023/12/01 09:22:37;;;;;;;12.35;5.40;;;19.00;46.80;;;;;;4987981;28;20064;-49
2023/12/01 09:25:04;;;;;;;17.52;6.18;;;19.10;46.90;;;;;;4988319;28;20692;-50
2023/12/01 09:27:30;;;;;;;12.40;5.85;;;19.10;47.40;;;;;;4988190;28;20054;-52
2023/12/01 09:29:55;;;;;;;15.50;6.07;;;19.00;47.70;;;;;;5000327;28;20469;-50
2023/12/01 09:32:21;;;;;;;15.70;6.07;;;19.10;47.30;;;;;;5005029;28;20902;-53
2023/12/01 09:34:47;;;;;;;11.40;5.20;;;19.10;47.40;;;;;;4987140;28;20105;-49
2023/12/01 09:37:14;;;;;;;11.73;5.50;;;19.10;47.70;;;;;;4996499;28;20057;-49
2023/12/01 09:39:40;;;;;;;15.80;5.38;;;19.20;47.90;;;;;;4993582;28;20028;-55
2023/12/01 09:42:08;;;;;;;12.13;5.70;;;19.20;48.00;;;;;;4983813;28;20034;-55
2023/12/01 09:44:37;;;;;;;16.35;5.45;;;19.20;48.00;;;;;;4985306;28;20026;-54
2023/12/01 09:47:04;;;;;;;11.52;5.15;;;19.30;48.00;;;;;;4985990;28;20660;-49
2023/12/01 09:49:33;;;;;;;16.38;5.10;;;19.20;48.10;;;;;;4985931;28;20065;-49
2023/12/01 09:52:03;;;;;;;14.43;5.15;;;19.30;48.40;;;;;;4985345;28;20022;-54
2023/12/01 09:54:30;;;;;;;10.07;4.80;;;19.20;48.40;;;;;;4968895;28;20468;-54
2023/12/01 09:57:06;;;;;;;8.95;4.68;;;19.30;48.30;;;;;;4968881;28;20076;-55
2023/12/01 09:59:36;;;;;;;11.20;5.32;;;19.30;48.20;;;;;;4988327;28;20033;-50
2023/12/01 10:02:03;;;;;;;10.57;5.03;;;19.30;48.30;;;;;;4986940;28;20395;-51
2023/12/01 10:04:30;;;;;;;11.35;5.38;;;19.30;48.20;;;;;;4994695;28;20090;-52
2023/12/01 10:07:00;;;;;;;13.15;4.75;;;19.40;48.30;;;;;;4987446;28;20105;-45
2023/12/01 10:09:32;;;;;;;17.23;4.95;;;19.50;48.50;;;;;;4987986;28;20031;-54
2023/12/01 10:12:07;;;;;;;13.63;5.20;;;19.40;48.60;;;;;;4987376;28;20042;-51
2023/12/01 10:14:34;;;;;;;16.45;5.70;;;19.40;48.40;;;;;;5006275;28;20431;-51
2023/12/01 10:17:03;;;;;;;9.40;4.93;;;19.40;48.60;;;;;;4998974;28;20496;-54
2023/12/01 10:19:33;;;;;;;12.85;5.03;;;19.30;48.90;;;;;;5001761;28;20058;-49
2023/12/01 10:21:59;;;;;;;11.30;5.10;;;19.40;48.80;;;;;;4986915;28;20030;-55
2023/12/01 10:24:25;;;;;;;13.13;5.43;;;19.30;49.60;;;;;;4987552;28;20562;-47
2023/12/01 10:26:54;;;;;;;9.18;5.07;;;19.30;50.00;;;;;;4987449;28;20030;-48
2023/12/01 10:29:23;;;;;;;9.55;4.90;;;19.30;49.60;;;;;;4987852;28;20440;-51
2023/12/01 10:31:49;;;;;;;12.40;5.43;;;19.20;49.20;;;;;;4987174;28;20038;-48
2023/12/01 10:34:15;;;;;;;9.40;4.90;;;19.20;49.40;;;;;;4987332;28;20749;-48
2023/12/01 10:36:42;;;;;;;12.98;5.00;;;19.20;50.20;;;;;;4992936;28;20481;-50
2023/12/01 10:39:10;;;;;;;10.45;4.88;;;19.20;51.00;;;;;;4986699;28;20037;-49
2023/12/01 10:41:39;;;;;;;11.52;5.40;;;19.20;50.70;;;;;;4986687;28;20030;-47
2023/12/01 10:44:06;;;;;;;12.57;7.32;;;19.10;51.30;;;;;;4987358;28;20127;-47
2023/12/01 10:46:34;;;;;;;13.20;7.35;;;18.90;46.80;;;;;;4986807;28;20034;-50
2023/12/01 10:49:02;;;;;;;14.00;8.88;;;18.80;46.80;;;;;;4987155;28;20049;-51
2023/12/01 10:51:29;;;;;;;19.13;8.07;;;18.80;44.80;;;;;;4986672;28;20574;-48
2023/12/01 10:53:57;;;;;;;15.90;8.55;;;18.70;44.40;;;;;;4987219;28;20046;-49
2023/12/01 10:56:24;;;;;;;19.88;8.60;;;18.60;44.10;;;;;;4986602;28;20035;-51
2023/12/01 10:58:53;;;;;;;13.82;7.45;;;18.70;45.90;;;;;;4969944;28;20045;-49
2023/12/01 11:01:22;;;;;;;11.57;6.55;;;18.80;46.00;;;;;;4986721;28;20125;-49
2023/12/01 11:03:49;;;;;;;17.05;6.85;;;18.90;46.00;;;;;;4987077;28;20109;-47
2023/12/01 11:06:47;;;;;;;14.48;6.78;;;18.90;46.80;;;;;;4986873;28;20609;-47
2023/12/01 11:09:30;;;;;;;19.88;6.63;;;19.00;47.10;;;;;;4988162;28;20053;-52
2023/12/01 11:12:02;;;;;;;23.92;8.30;;;19.00;47.70;;;;;;4986612;28;20050;-50
2023/12/01 11:14:30;;;;;;;24.92;8.57;;;18.90;48.80;;;;;;4987118;28;20030;-48
2023/12/01 11:16:56;;;;;;;15.00;7.95;;;19.00;47.20;;;;;;4986857;28;20382;-49
2023/12/01 11:19:23;;;;;;;17.80;8.18;;;19.00;47.20;;;;;;4986318;28;20097;-50
2023/12/01 11:21:56;;;;;;;19.20;7.35;;;19.10;47.30;;;;;;4986504;28;20049;-52
2023/12/01 11:24:24;;;;;;;18.60;6.80;;;19.10;47.60;;;;;;4987032;28;20030;-54
2023/12/01 11:26:54;;;;;;;20.40;7.25;;;19.10;47.80;;;;;;4986532;28;20037;-48
2023/12/01 11:29:29;;;;;;;15.68;6.55;;;19.10;48.40;;;;;;4986744;28;20176;-50
2023/12/01 11:31:57;;;;;;;14.98;7.25;;;19.10;48.00;;;;;;4968700;28;20034;-52
2023/12/01 11:34:25;;;;;;;16.77;6.63;;;19.10;48.30;;;;;;4986577;28;20039;-50
2023/12/01 11:36:54;;;;;;;16.63;7.10;;;19.10;48.90;;;;;;4986403;28;20080;-51
2023/12/01 11:39:26;;;;;;;11.23;6.00;;;19.10;49.20;;;;;;4986589;28;20517;-50
2023/12/01 11:42:12;;;;;;;14.05;6.43;;;19.10;48.90;;;;;;4986404;28;20057;-54
2023/12/01 11:44:40;;;;;;;12.57;5.80;;;19.00;49.30;;;;;;4986163;28;20026;-51
2023/12/01 11:47:09;;;;;;;13.57;6.13;;;19.10;49.10;;;;;;4968716;28;20497;-50
2023/12/01 11:49:44;;;;;;;13.68;6.55;;;19.10;49.10;;;;;;4986024;28;20050;-52
2023/12/01 11:52:13;;;;;;;11.73;5.60;;;19.10;49.20;;;;;;4986102;28;20026;-51
2023/12/01 11:54:39;;;;;;;12.68;6.20;;;19.10;49.40;;;;;;4986463;28;20542;-47
2023/12/01 11:57:09;;;;;;;13.55;5.75;;;19.10;49.30;;;;;;4986242;28;20109;-50
2023/12/01 11:59:36;;;;;;;14.63;5.93;;;19.00;49.30;;;;;;4988175;28;20080;-54
2023/12/01 12:02:03;;;;;;;15.10;6.22;;;19.00;50.20;;;;;;4989038;28;20037;-51
2023/12/01 12:04:29;;;;;;;16.45;6.78;;;19.10;52.70;;;;;;4989417;28;20030;-54
2023/12/01 12:06:57;;;;;;;21.67;8.93;;;19.00;50.60;;;;;;4989472;28;20135;-56
2023/12/01 12:09:23;;;;;;;27.50;7.60;;;19.00;49.60;;;;;;4989569;28;20129;-56
2023/12/01 12:11:53;;;;;;;23.90;7.65;;;19.00;49.90;;;;;;4989188;28;20513;-57
2023/12/01 12:14:27;;;;;;;17.17;7.07;;;19.10;50.10;;;;;;4989741;28;20027;-57
2023/12/01 12:16:53;;;;;;;17.75;6.47;;;19.10;50.50;;;;;;4989482;28;20033;-57
2023/12/01 12:19:19;;;;;;;15.35;6.15;;;19.10;51.20;;;;;;4989344;28;20105;-57
2023/12/01 12:21:46;;;;;;;12.18;6.03;;;19.10;51.20;;;;;;4988779;28;20469;-51
2023/12/01 12:24:12;;;;;;;16.35;6.10;;;19.10;51.60;;;;;;4971682;28;20027;-52
2023/12/01 12:26:38;;;;;;;99.82;21.05;;;19.30;52.20;;;;;;4967447;28;20026;-57
2023/12/01 12:29:05;;;;;;;172.60;34.00;;;19.40;53.80;;;;;;4988739;28;20041;-54
2023/12/01 12:31:42;;;;;;;322.13;60.08;;;19.50;53.00;;;;;;4988878;28;20117;-52
2023/12/01 12:34:09;;;;;;;241.18;51.38;;;19.50;53.70;;;;;;4989287;28;20117;-58
2023/12/01 12:36:37;;;;;;;222.60;52.75;;;19.30;53.30;;;;;;4971861;28;20036;-56
2023/12/01 12:39:06;;;;;;;193.45;43.65;;;19.30;53.60;;;;;;4989274;28;20026;-51
2023/12/01 12:41:34;;;;;;;184.48;40.45;;;19.20;52.60;;;;;;4988705;28;20023;-54
2023/12/01 12:44:05;;;;;;;161.45;36.00;;;19.10;51.40;;;;;;4988980;28;20034;-54
2023/12/01 12:46:34;;;;;;;140.82;33.47;;;19.10;51.20;;;;;;4988866;28;20033;-56